Time;durP1;ratioP1;P1;durP2;ratioP2;P2;SDS_P1;SDS_P2;PMS_P1;PMS_P2;Temp;Humidity;BMP_temperature;BMP_pressure;BME280_temperature;BME280_humidity;BME280_pressure;Samples;Min_cycle;Max_cycle;Signal;HPM_P1;HPM_P2
2023/06/20 00:01:03;;;;;;;7.30;5.90;;;19.00;97.30;;;19.33;63.21;95112.50;5014140;28;20457;-54
2023/06/20 00:03:30;;;;;;;18.37;6.30;;;18.90;97.20;;;19.28;63.95;95105.06;5008018;28;20462;-55
2023/06/20 00:05:58;;;;;;;11.90;6.60;;;18.90;97.40;;;19.23;64.04;95104.81;5009933;28;21275;-56
2023/06/20 00:08:25;;;;;;;7.87;5.97;;;18.90;97.50;;;19.17;63.73;95106.38;5009744;28;20506;-60
2023/06/20 00:10:54;;;;;;;10.50;5.77;;;18.80;97.50;;;19.14;63.51;95112.09;5015465;28;20500;-60
2023/06/20 00:13:21;;;;;;;7.23;5.83;;;18.80;97.60;;;19.10;64.14;95112.63;5009847;28;20520;-60
2023/06/20 00:15:48;;;;;;;8.70;6.30;;;18.70;97.80;;;19.07;64.32;95107.69;5010351;28;20531;-60
2023/06/20 00:18:17;;;;;;;8.50;6.00;;;18.70;98.00;;;19.05;65.00;95107.06;5014162;28;20521;-60
2023/06/20 00:20:46;;;;;;;6.00;5.23;;;18.70;98.40;;;19.01;64.86;95106.59;5011301;28;20466;-62
2023/06/20 00:23:13;;;;;;;6.43;5.83;;;18.60;98.60;;;18.97;64.58;95106.13;5019009;28;20453;-62
2023/06/20 00:25:40;;;;;;;9.57;6.20;;;18.60;98.60;;;18.93;64.95;95104.88;5014328;28;20908;-60
2023/06/20 00:28:11;;;;;;;7.00;5.87;;;18.50;98.60;;;18.91;64.63;95108.72;5015956;28;20517;-56
2023/06/20 00:30:38;;;;;;;7.93;7.17;;;18.50;98.80;;;18.89;65.36;95108.09;5015224;28;20549;-60
2023/06/20 00:33:05;;;;;;;7.40;6.13;;;18.50;99.00;;;18.84;64.79;95097.97;5019015;28;20496;-56
2023/06/20 00:35:33;;;;;;;6.90;6.10;;;18.50;99.10;;;18.81;65.11;95103.66;5014489;28;20547;-56
2023/06/20 00:38:00;;;;;;;9.30;6.53;;;18.40;99.30;;;18.78;65.78;95104.84;5018998;28;20448;-55
2023/06/20 00:40:28;;;;;;;7.33;6.60;;;18.40;99.50;;;18.76;65.61;95106.88;5016644;28;20488;-58
2023/06/20 00:42:55;;;;;;;7.73;6.97;;;18.40;99.90;;;18.75;65.94;95101.72;5016643;28;20524;-60
2023/06/20 00:45:32;;;;;;;5.67;5.07;;;18.40;99.70;;;18.73;65.86;95101.91;5014092;28;20477;-57
2023/06/20 00:48:04;;;;;;;7.17;6.47;;;18.40;99.80;;;18.70;65.92;95093.44;5012440;28;20453;-65
2023/06/20 00:50:32;;;;;;;10.37;6.40;;;18.30;99.90;;;18.67;65.84;95084.00;5019909;28;20577;-53
2023/06/20 00:53:00;;;;;;;6.50;5.80;;;18.30;99.90;;;18.64;65.63;95087.03;5020848;28;20570;-60
2023/06/20 00:55:28;;;;;;;7.43;6.27;;;18.30;99.90;;;18.62;66.58;95087.22;5015542;28;20499;-62
2023/06/20 00:57:59;;;;;;;10.33;6.90;;;18.20;99.90;;;18.60;66.06;95097.22;5013704;28;20926;-55
2023/06/20 01:00:28;;;;;;;7.30;6.70;;;18.20;99.90;;;18.56;66.44;95098.59;5013346;28;20580;-60
2023/06/20 01:03:01;;;;;;;5.90;5.40;;;18.20;99.90;;;18.54;66.26;95099.78;5013147;28;20551;-53
2023/06/20 01:05:28;;;;;;;7.43;6.73;;;18.20;99.90;;;18.49;66.75;95100.34;5017483;28;20535;-54
2023/06/20 01:08:02;;;;;;;9.13;7.00;;;18.10;99.90;;;18.48;66.67;95098.69;5012888;28;20464;-56
2023/06/20 01:10:37;;;;;;;7.40;6.40;;;18.10;99.90;;;18.46;67.07;95104.19;5015865;28;20531;-60
2023/06/20 01:13:10;;;;;;;8.53;6.57;;;18.10;99.90;;;18.45;67.41;95110.53;5011714;28;20498;-61
2023/06/20 01:15:41;;;;;;;10.43;6.97;;;18.10;99.90;;;18.44;67.43;95103.56;5018098;28;20489;-61
2023/06/20 01:18:14;;;;;;;7.07;6.30;;;18.10;99.90;;;18.43;67.11;95106.41;5011057;28;20449;-62
2023/06/20 01:20:44;;;;;;;7.57;6.60;;;18.10;99.90;;;18.43;66.86;95109.06;5013701;28;20634;-58
2023/06/20 01:23:14;;;;;;;7.27;6.57;;;18.10;99.90;;;18.41;67.42;95105.75;5013950;28;20536;-54
2023/06/20 01:25:46;;;;;;;8.23;6.20;;;18.00;99.90;;;18.38;67.22;95104.28;5012466;28;20477;-54
2023/06/20 01:28:20;;;;;;;15.23;7.50;;;18.00;99.90;;;18.35;67.55;95099.31;5014610;28;20550;-61
2023/06/20 01:30:50;;;;;;;8.20;6.60;;;18.00;99.90;;;18.34;68.00;95107.50;5016534;28;20544;-56
2023/06/20 01:33:22;;;;;;;8.50;6.97;;;17.90;99.90;;;18.32;67.34;95098.88;5012408;28;21037;-61
2023/06/20 01:35:49;;;;;;;8.13;7.33;;;18.00;99.90;;;18.30;67.99;95101.72;5011123;28;20609;-61
2023/06/20 01:38:18;;;;;;;7.40;6.70;;;17.90;99.90;;;18.30;67.57;95100.91;5012846;28;21057;-61
2023/06/20 01:40:48;;;;;;;9.03;7.03;;;17.90;99.90;;;18.29;67.41;95110.69;5012804;28;20484;-62
2023/06/20 01:43:15;;;;;;;12.03;7.23;;;17.90;99.90;;;18.26;67.90;95111.91;5007579;28;20518;-62
2023/06/20 01:45:42;;;;;;;7.90;7.10;;;17.90;99.90;;;18.26;67.28;95111.06;5014786;28;21021;-60
2023/06/20 01:48:09;;;;;;;7.40;6.60;;;17.90;99.90;;;18.23;68.00;95111.44;5016382;28;20462;-60
2023/06/20 01:50:37;;;;;;;9.50;6.60;;;17.90;99.90;;;18.18;67.49;95111.97;5017237;28;20961;-61
2023/06/20 01:53:04;;;;;;;15.73;7.33;;;17.80;99.90;;;18.16;68.24;95116.66;5010105;28;20489;-61
2023/06/20 01:55:33;;;;;;;13.30;7.30;;;17.80;99.90;;;18.15;67.92;95115.00;5017245;28;21000;-62
2023/06/20 01:58:00;;;;;;;7.80;7.07;;;17.80;99.90;;;18.13;68.60;95108.22;5014595;28;20458;-61
2023/06/20 02:00:28;;;;;;;8.60;7.33;;;17.80;99.90;;;18.10;68.34;95106.72;5010565;28;20501;-57
2023/06/20 02:02:56;;;;;;;11.97;7.93;;;17.80;99.90;;;18.07;68.47;95109.75;5012878;28;20461;-54
2023/06/20 02:05:23;;;;;;;8.30;7.17;;;17.70;99.90;;;18.04;68.66;95115.44;5019851;28;20885;-56
2023/06/20 02:07:50;;;;;;;11.73;6.57;;;17.70;99.90;;;18.02;68.43;95115.63;5014400;28;20966;-60
2023/06/20 02:10:21;;;;;;;9.43;7.50;;;17.60;99.90;;;18.00;68.33;95101.66;5015116;28;20481;-54
2023/06/20 02:12:50;;;;;;;12.00;7.40;;;17.70;99.90;;;17.98;68.52;95101.00;5009090;28;20449;-60
2023/06/20 02:15:18;;;;;;;11.97;7.00;;;17.60;99.90;;;17.96;68.80;95115.50;5009677;28;20903;-60
2023/06/20 02:17:45;;;;;;;9.40;6.97;;;17.60;99.90;;;17.94;68.70;95106.88;5012622;28;20492;-55
2023/06/20 02:20:13;;;;;;;9.40;6.57;;;17.60;99.90;;;17.91;69.09;95118.72;5014470;28;20472;-63
2023/06/20 02:22:41;;;;;;;7.73;6.80;;;17.60;99.90;;;17.88;69.26;95116.38;5011602;28;20629;-61
2023/06/20 02:25:10;;;;;;;10.90;8.00;;;17.50;99.90;;;17.83;69.11;95108.94;5012575;28;20501;-62
2023/06/20 02:27:39;;;;;;;10.20;7.80;;;17.50;99.90;;;17.78;68.89;95113.94;5012395;28;20458;-59
2023/06/20 02:30:09;;;;;;;14.53;7.10;;;17.50;99.90;;;17.73;69.07;95116.31;5016636;28;20480;-59
2023/06/20 02:32:36;;;;;;;8.53;7.03;;;17.40;99.90;;;17.68;69.35;95108.88;5011801;28;20454;-61
2023/06/20 02:35:04;;;;;;;8.57;7.77;;;17.30;99.90;;;17.65;69.70;95119.88;5013390;28;20520;-53
2023/06/20 02:37:33;;;;;;;11.93;7.40;;;17.30;99.90;;;17.63;69.94;95126.34;5016593;28;20526;-57
2023/06/20 02:40:00;;;;;;;8.60;7.77;;;17.30;99.90;;;17.61;69.46;95126.53;5013025;28;20516;-55
2023/06/20 02:42:27;;;;;;;8.70;7.80;;;17.30;99.90;;;17.59;70.05;95127.75;5011326;28;20523;-54
2023/06/20 02:44:55;;;;;;;13.00;7.27;;;17.20;99.90;;;17.59;70.34;95119.75;5009411;28;20555;-55
2023/06/20 02:47:29;;;;;;;7.60;6.53;;;17.20;99.90;;;17.58;69.99;95134.06;5015935;28;20457;-54
2023/06/20 02:50:00;;;;;;;11.40;7.37;;;17.20;99.90;;;17.58;69.80;95134.06;5011872;28;20477;-61
2023/06/20 02:52:33;;;;;;;9.10;7.17;;;17.20;99.90;;;17.56;69.63;95140.38;5007513;28;20532;-60
2023/06/20 02:55:10;;;;;;;8.17;7.33;;;17.20;99.90;;;17.54;69.33;95145.03;5007785;28;20551;-53
2023/06/20 02:57:37;;;;;;;7.80;7.00;;;17.20;99.90;;;17.51;69.77;95145.41;5010754;28;20441;-56
2023/06/20 03:00:09;;;;;;;9.37;6.67;;;17.20;99.90;;;17.50;69.54;95146.38;5012395;28;20477;-55
2023/06/20 03:02:51;;;;;;;6.40;5.90;;;17.20;99.90;;;17.49;69.49;95146.56;5012596;28;20448;-55
2023/06/20 03:05:19;;;;;;;10.27;6.57;;;17.10;99.90;;;17.47;69.15;95149.41;5017917;28;21025;-61
2023/06/20 03:07:46;;;;;;;14.53;6.37;;;17.10;99.90;;;17.47;68.85;95154.72;5007965;28;20470;-61
2023/06/20 03:10:13;;;;;;;12.10;7.13;;;17.10;99.90;;;17.45;68.96;95155.91;5013538;28;20485;-54
2023/06/20 03:12:41;;;;;;;8.40;6.90;;;17.10;99.90;;;17.42;69.02;95161.59;5012298;28;20464;-56
2023/06/20 03:15:09;;;;;;;14.20;7.73;;;17.10;99.90;;;17.38;69.28;95167.25;5008173;28;20497;-57
2023/06/20 03:17:38;;;;;;;9.30;6.60;;;17.10;99.90;;;17.34;69.29;95165.13;5008083;28;20454;-53
2023/06/20 03:20:08;;;;;;;12.23;6.90;;;17.00;99.90;;;17.29;69.13;95162.13;5016848;28;20481;-61
2023/06/20 03:22:35;;;;;;;17.47;7.97;;;16.90;99.90;;;17.20;69.12;95159.53;5010142;28;20531;-60
2023/06/20 03:25:03;;;;;;;9.00;7.03;;;16.90;99.90;;;17.15;69.17;95167.19;5010097;28;20485;-56
2023/06/20 03:27:30;;;;;;;16.30;6.97;;;16.90;99.90;;;17.11;69.07;95173.03;5007371;28;20469;-57
2023/06/20 03:29:59;;;;;;;11.13;5.90;;;16.80;99.90;;;17.09;69.63;95175.88;5014527;28;20497;-61
2023/06/20 03:32:27;;;;;;;16.63;8.07;;;16.80;99.90;;;17.09;69.37;95172.38;5009627;28;20458;-55
2023/06/20 03:34:55;;;;;;;7.93;7.13;;;16.80;99.90;;;17.09;69.77;95178.53;5012038;28;20496;-56
2023/06/20 03:37:22;;;;;;;9.47;7.40;;;16.80;99.90;;;17.13;69.77;95176.34;5016581;28;20832;-55
2023/06/20 03:39:50;;;;;;;9.33;7.83;;;16.80;99.90;;;17.13;69.32;95173.69;5008018;28;20481;-62
2023/06/20 03:42:17;;;;;;;11.50;7.23;;;16.80;99.90;;;17.14;69.62;95170.84;5007565;28;20982;-60
2023/06/20 03:44:44;;;;;;;13.20;6.60;;;16.80;99.90;;;17.18;69.82;95180.13;5005620;28;20589;-61
2023/06/20 03:47:13;;;;;;;9.63;8.63;;;16.80;99.90;;;17.22;69.78;95166.50;5010798;28;20497;-60
2023/06/20 03:49:40;;;;;;;15.20;8.03;;;16.90;99.90;;;17.25;69.27;95171.47;5014903;28;20484;-56
2023/06/20 03:52:09;;;;;;;14.00;7.03;;;16.90;99.90;;;17.25;69.48;95171.47;5015327;28;20464;-62
2023/06/20 03:54:37;;;;;;;12.43;8.13;;;16.90;99.90;;;17.27;69.54;95172.13;5010842;28;20499;-53
2023/06/20 03:57:05;;;;;;;10.57;7.90;;;16.90;99.90;;;17.27;69.04;95175.59;5010389;28;20518;-55
2023/06/20 03:59:32;;;;;;;15.83;8.17;;;16.90;99.90;;;17.28;69.54;95179.09;5010192;28;20470;-56
2023/06/20 04:01:59;;;;;;;19.00;8.67;;;16.90;99.90;;;17.30;69.62;95185.88;5010413;28;20511;-63
2023/06/20 04:04:27;;;;;;;8.53;7.50;;;17.00;99.90;;;17.34;69.53;95187.19;5010673;28;20473;-57
2023/06/20 04:06:54;;;;;;;11.27;7.33;;;17.00;99.90;;;17.42;69.81;95185.50;5011220;28;20457;-62
2023/06/20 04:09:25;;;;;;;13.90;7.53;;;17.10;99.90;;;17.47;69.38;95180.50;5008173;28;20495;-60
2023/06/20 04:11:53;;;;;;;19.57;7.60;;;17.10;99.90;;;17.53;70.19;95177.94;5008550;28;20596;-65
2023/06/20 04:14:20;;;;;;;11.50;7.50;;;17.20;99.90;;;17.64;69.52;95181.22;5012076;28;21028;-63
2023/06/20 04:16:49;;;;;;;11.70;7.60;;;17.20;99.90;;;17.73;69.28;95185.50;5012053;28;20457;-63
2023/06/20 04:19:17;;;;;;;7.63;6.93;;;17.30;99.90;;;17.82;69.40;95186.28;5010279;28;20493;-65
2023/06/20 04:21:44;;;;;;;8.93;6.67;;;17.40;99.90;;;17.95;69.11;95183.03;5011010;28;20465;-56
2023/06/20 04:24:11;;;;;;;9.27;7.87;;;17.50;99.90;;;18.02;68.80;95184.81;5005921;28;20492;-66
2023/06/20 04:26:40;;;;;;;10.93;7.53;;;17.60;99.90;;;18.14;68.34;95197.69;5013125;28;20491;-65
2023/06/20 04:29:07;;;;;;;13.60;6.50;;;17.70;99.90;;;18.20;68.73;95192.50;5011238;28;20554;-54
2023/06/20 04:31:35;;;;;;;13.47;6.77;;;17.80;99.90;;;18.30;68.53;95196.75;5006120;28;20453;-65
2023/06/20 04:34:02;;;;;;;15.30;7.63;;;17.90;99.90;;;18.38;68.04;95196.69;5008387;28;20588;-55
2023/06/20 04:36:34;;;;;;;9.63;6.40;;;17.90;99.90;;;18.42;67.55;95196.13;5008220;28;20982;-55
2023/06/20 04:39:01;;;;;;;13.90;7.10;;;18.00;99.90;;;18.48;68.20;95202.56;5014039;28;20545;-54
2023/06/20 04:41:28;;;;;;;10.97;7.70;;;18.10;99.90;;;18.56;67.85;95199.84;5011825;28;20468;-55
2023/06/20 04:44:00;;;;;;;12.07;7.80;;;18.10;99.90;;;18.60;67.09;95198.44;5010510;28;20523;-61
2023/06/20 04:46:28;;;;;;;11.00;7.37;;;18.20;99.90;;;18.66;67.10;95201.41;5012896;28;20970;-64
2023/06/20 04:48:55;;;;;;;12.13;7.90;;;18.20;99.90;;;18.69;67.70;95209.88;5010134;28;20449;-63
2023/06/20 04:51:23;;;;;;;11.77;6.67;;;18.30;99.90;;;18.72;67.03;95201.50;5010868;28;20458;-61
2023/06/20 04:53:50;;;;;;;10.90;7.20;;;18.30;99.90;;;18.76;67.50;95204.63;5012818;28;20485;-62
2023/06/20 04:56:18;;;;;;;13.63;7.87;;;18.40;99.90;;;18.81;67.58;95212.91;5013109;28;20460;-55
2023/06/20 04:58:46;;;;;;;14.13;7.07;;;18.40;99.90;;;18.85;66.85;95210.75;5010424;28;21444;-61
2023/06/20 05:01:15;;;;;;;14.40;7.40;;;18.50;99.90;;;18.92;66.90;95211.69;5010671;28;20568;-56
2023/06/20 05:03:42;;;;;;;10.10;7.30;;;18.50;99.90;;;18.97;66.59;95226.09;5012381;28;20464;-60
2023/06/20 05:06:17;;;;;;;12.70;7.90;;;18.60;99.90;;;19.03;66.56;95219.22;5012579;28;20448;-61
2023/06/20 05:08:45;;;;;;;14.97;8.27;;;18.60;99.90;;;19.07;66.15;95225.00;5014994;28;20440;-56
2023/06/20 05:11:12;;;;;;;11.73;8.07;;;18.70;99.90;;;19.14;66.42;95216.06;5013737;28;20871;-61
2023/06/20 05:13:39;;;;;;;22.77;7.93;;;18.70;99.90;;;19.22;66.33;95212.47;5012549;28;20452;-61
2023/06/20 05:16:06;;;;;;;14.30;8.40;;;18.80;99.90;;;19.33;66.38;95204.03;5014903;28;20883;-56
2023/06/20 05:18:35;;;;;;;13.80;8.57;;;18.90;99.90;;;19.44;65.93;95207.22;5015177;28;20449;-57
2023/06/20 05:21:03;;;;;;;12.40;8.37;;;19.00;99.90;;;19.59;65.92;95202.69;5010582;28;20556;-60
2023/06/20 05:23:30;;;;;;;14.37;9.00;;;19.10;99.90;;;19.75;65.73;95201.66;5017720;28;20449;-56
2023/06/20 05:25:57;;;;;;;16.50;8.43;;;19.30;99.90;;;19.94;65.04;95202.06;5014606;28;20469;-55
2023/06/20 05:28:25;;;;;;;15.47;7.37;;;19.40;99.90;;;20.10;64.96;95198.31;5016182;28;20464;-56
2023/06/20 05:30:52;;;;;;;23.93;7.77;;;19.60;99.90;;;20.29;64.69;95196.84;5012151;28;20474;-55
2023/06/20 05:33:20;;;;;;;11.40;8.83;;;19.70;99.90;;;20.47;64.52;95194.53;5010951;28;20475;-62
2023/06/20 05:35:48;;;;;;;19.83;8.00;;;19.90;99.90;;;20.64;63.99;95195.06;5014345;28;20500;-62
2023/06/20 05:38:16;;;;;;;16.33;8.87;;;20.10;99.90;;;20.80;63.03;95193.16;5017600;28;20584;-54
2023/06/20 05:40:44;;;;;;;13.10;8.47;;;20.30;99.90;;;20.98;62.95;95196.16;5012441;28;20497;-56
2023/06/20 05:43:11;;;;;;;25.63;10.37;;;20.40;99.90;;;21.19;62.80;95194.41;5014194;28;20998;-62
2023/06/20 05:45:38;;;;;;;23.67;9.70;;;20.60;99.90;;;21.37;62.34;95189.34;5016375;28;20472;-55
2023/06/20 05:48:08;;;;;;;16.43;9.77;;;20.80;99.90;;;21.56;61.76;95193.16;5014233;28;20449;-57
2023/06/20 05:50:37;;;;;;;17.00;9.53;;;21.00;99.90;;;21.76;61.27;95187.06;5020845;28;20532;-57
2023/06/20 05:53:08;;;;;;;15.13;9.20;;;21.10;99.90;;;21.99;61.27;95190.19;5015411;28;20476;-61
2023/06/20 05:55:35;;;;;;;10.80;9.23;;;21.30;99.90;;;22.23;60.64;95197.88;5014810;28;20496;-60
2023/06/20 05:58:02;;;;;;;13.23;10.37;;;21.60;99.90;;;22.45;60.21;95201.19;5013047;28;20889;-63
2023/06/20 06:00:30;;;;;;;15.80;9.87;;;21.80;99.90;;;22.66;59.90;95203.69;5017069;28;20504;-55
2023/06/20 06:02:57;;;;;;;23.20;10.90;;;22.00;99.90;;;22.87;59.17;95210.69;5013210;28;20458;-61
2023/06/20 06:05:24;;;;;;;26.43;11.90;;;22.20;99.90;;;23.08;59.28;95216.84;5014832;28;20538;-61
2023/06/20 06:07:52;;;;;;;24.03;8.93;;;22.40;99.90;;;23.29;58.84;95229.22;5011854;28;20461;-56
2023/06/20 06:10:20;;;;;;;19.93;9.10;;;22.60;99.90;;;;;;5013573;28;20488;-61
2023/06/20 06:12:47;;;;;;;12.80;9.80;;;22.80;99.70;;;23.65;58.17;95221.69;5016412;28;20894;-56
2023/06/20 06:15:15;;;;;;;17.57;9.40;;;23.00;99.50;;;23.78;57.22;95218.91;5014915;28;20496;-56
2023/06/20 06:17:43;;;;;;;21.70;9.23;;;23.10;99.00;;;23.85;56.82;95218.94;5010450;28;20453;-61
2023/06/20 06:20:15;;;;;;;10.20;8.87;;;23.20;98.70;;;23.96;57.37;95219.06;5008875;28;20477;-56
2023/06/20 06:22:42;;;;;;;17.53;9.27;;;23.30;98.60;;;24.14;56.75;95212.16;5013959;28;20507;-61
2023/06/20 06:25:10;;;;;;;17.37;8.53;;;23.50;98.80;;;24.29;56.74;95219.91;5014320;28;20473;-61
2023/06/20 06:27:39;;;;;;;26.73;8.60;;;23.70;98.30;;;24.38;55.75;95215.09;5013904;28;20520;-56
2023/06/20 06:30:08;;;;;;;24.97;10.67;;;23.70;97.90;;;24.49;55.72;95211.69;5015501;28;20472;-56
2023/06/20 06:32:36;;;;;;;15.33;8.60;;;23.80;97.90;;;24.62;56.08;95214.31;5013285;28;20534;-60
2023/06/20 06:35:04;;;;;;;33.83;9.60;;;23.90;97.70;;;24.70;55.75;95216.72;5012088;28;20559;-57
2023/06/20 06:37:31;;;;;;;30.33;9.63;;;24.10;97.50;;;24.83;55.91;95212.28;5018877;28;20448;-61
2023/06/20 06:39:59;;;;;;;41.07;10.90;;;24.10;97.50;;;24.99;55.92;95200.16;5014432;28;20547;-62
2023/06/20 06:42:26;;;;;;;28.30;8.90;;;24.30;97.40;;;25.16;55.18;95200.38;5011023;28;20456;-63
2023/06/20 06:44:55;;;;;;;14.10;8.87;;;24.40;97.20;;;25.33;54.88;95195.25;5015340;28;20487;-62
2023/06/20 06:47:22;;;;;;;33.87;8.87;;;24.60;97.00;;;25.50;54.58;95203.56;5015963;28;20448;-60
2023/06/20 06:49:49;;;;;;;47.47;10.13;;;24.80;96.70;;;25.68;54.23;95198.16;5018415;28;20537;-56
2023/06/20 06:52:17;;;;;;;23.07;8.83;;;25.00;96.40;;;25.88;53.96;95197.09;5016183;28;20460;-57
2023/06/20 06:54:44;;;;;;;43.00;9.07;;;25.20;96.30;;;26.04;53.35;95196.50;5010834;28;20539;-56
2023/06/20 06:57:11;;;;;;;24.30;8.97;;;25.30;95.80;;;26.24;53.39;95193.50;5016424;28;20563;-57
2023/06/20 06:59:39;;;;;;;16.60;8.10;;;25.50;95.50;;;26.37;52.84;95195.19;5007122;28;20477;-59
2023/06/20 07:02:08;;;;;;;28.47;8.30;;;25.70;95.20;;;26.42;52.23;95187.19;5015699;28;21014;-61
2023/06/20 07:04:35;;;;;;;33.40;10.07;;;25.70;94.50;;;26.53;52.32;95192.88;5012908;28;20479;-55
2023/06/20 07:07:02;;;;;;;27.73;9.00;;;25.80;94.50;;;26.65;52.34;95188.31;5013023;28;20522;-61
2023/06/20 07:09:30;;;;;;;29.00;10.60;;;25.90;94.40;;;26.82;51.93;95185.78;5010918;28;20550;-55
2023/06/20 07:11:57;;;;;;;14.50;8.97;;;26.10;94.50;;;26.99;51.87;95175.91;5013712;28;20476;-57
2023/06/20 07:14:26;;;;;;;14.70;9.17;;;26.20;93.90;;;27.12;50.74;95184.81;5008817;28;20531;-60
2023/06/20 07:16:53;;;;;;;15.43;8.73;;;26.40;93.40;;;27.27;50.45;95182.47;5013984;28;20464;-54
2023/06/20 07:19:22;;;;;;;14.93;8.90;;;26.50;93.00;;;27.44;50.51;95179.06;5010094;28;21045;-56
2023/06/20 07:21:49;;;;;;;16.37;8.60;;;26.70;92.70;;;27.63;50.43;95185.13;5015933;28;20452;-55
2023/06/20 07:24:17;;;;;;;12.53;8.63;;;26.90;92.70;;;27.83;50.07;95180.13;5013682;28;20477;-55
2023/06/20 07:26:44;;;;;;;11.70;7.97;;;27.10;92.30;;;28.05;49.54;95180.28;5014590;28;20881;-56
2023/06/20 07:29:11;;;;;;;17.20;8.77;;;27.20;92.00;;;28.26;49.02;95184.19;5009177;28;20523;-60
2023/06/20 07:31:39;;;;;;;9.40;7.80;;;27.50;91.60;;;28.47;48.42;95181.00;5012034;28;20514;-61
2023/06/20 07:34:06;;;;;;;13.17;7.30;;;27.70;91.10;;;28.67;48.18;95180.56;5011990;28;20880;-56
2023/06/20 07:36:35;;;;;;;8.30;6.93;;;27.90;90.70;;;28.86;48.33;95181.97;5015009;28;20614;-60
2023/06/20 07:39:02;;;;;;;14.83;7.23;;;28.10;90.10;;;29.06;47.74;95183.31;5015464;28;20465;-61
2023/06/20 07:41:29;;;;;;;8.80;6.97;;;28.20;89.40;;;29.22;47.01;95179.81;5014636;28;20453;-60
2023/06/20 07:43:57;;;;;;;8.37;7.10;;;28.50;88.70;;;29.38;46.41;95177.31;5009850;28;21077;-56
2023/06/20 07:46:25;;;;;;;9.23;7.40;;;28.60;87.10;;;29.49;46.68;95176.34;5010318;28;20599;-55
2023/06/20 07:48:52;;;;;;;15.23;7.50;;;28.70;86.20;;;29.63;45.98;95179.50;5013836;28;20660;-58
2023/06/20 07:51:20;;;;;;;12.43;7.70;;;28.80;84.50;;;29.78;46.48;95176.97;5018245;28;20474;-60
2023/06/20 07:53:49;;;;;;;12.23;8.10;;;29.00;85.10;;;29.91;46.39;95186.66;5013344;28;20931;-57
2023/06/20 07:56:16;;;;;;;12.47;7.00;;;29.10;85.20;;;30.03;45.82;95178.38;5011841;28;20230;-60
2023/06/20 07:58:44;;;;;;;7.50;6.80;;;29.20;84.30;;;30.18;44.96;95177.72;5014113;28;20214;-56
2023/06/20 08:01:12;;;;;;;17.90;7.70;;;29.40;82.90;;;30.35;45.56;95188.44;5007055;28;20206;-56
2023/06/20 08:03:40;;;;;;;13.37;8.13;;;29.60;82.10;;;30.54;44.90;95187.03;5013604;28;20308;-60
2023/06/20 08:06:07;;;;;;;13.20;8.77;;;29.70;81.00;;;30.77;44.99;95185.06;5009020;28;21061;-60
2023/06/20 08:08:34;;;;;;;8.17;6.10;;;29.90;80.40;;;30.95;44.46;95191.16;5014787;28;20681;-54
2023/06/20 08:11:03;;;;;;;13.20;7.50;;;30.20;79.70;;;31.07;43.86;95189.91;5015547;28;20763;-62
2023/06/20 08:13:31;;;;;;;6.80;6.00;;;30.30;78.90;;;31.20;43.83;95196.81;5011487;28;20304;-61
2023/06/20 08:15:58;;;;;;;9.23;7.47;;;30.40;78.10;;;31.36;41.26;95180.59;5009123;28;20238;-60
2023/06/20 08:18:25;;;;;;;9.20;7.13;;;30.60;73.20;;;31.58;43.16;95191.34;5016071;28;20236;-57
2023/06/20 08:20:53;;;;;;;12.80;6.63;;;30.70;75.50;;;31.81;42.50;95190.06;5011715;28;20233;-57
2023/06/20 08:23:25;;;;;;;16.88;7.38;;;31.00;74.60;;;32.03;41.31;95189.88;5015151;28;20754;-60
2023/06/20 08:25:53;;;;;;;10.02;7.63;;;31.20;73.00;;;32.15;41.57;95187.75;5009668;28;20230;-57
2023/06/20 08:28:22;;;;;;;9.00;7.93;;;31.40;72.60;;;32.31;41.22;95187.78;5016229;28;20289;-57
2023/06/20 08:30:49;;;;;;;7.78;6.70;;;31.50;71.60;;;32.54;40.57;95181.00;5008682;28;20225;-61
2023/06/20 08:33:17;;;;;;;13.77;6.75;;;31.70;70.60;;;32.75;40.10;95176.44;5010344;28;20240;-61
2023/06/20 08:35:44;;;;;;;31.00;8.13;;;32.00;69.40;;;33.01;40.00;95179.13;5013237;28;20324;-55
2023/06/20 08:38:12;;;;;;;8.48;6.05;;;32.20;68.60;;;33.23;39.78;95185.13;5014693;28;21143;-61
2023/06/20 08:40:39;;;;;;;7.55;6.25;;;32.40;68.60;;;33.44;39.36;95182.34;5007644;28;20218;-57
2023/06/20 08:43:06;;;;;;;11.48;7.55;;;32.60;67.60;;;33.57;39.06;95187.22;5012513;28;20210;-57
2023/06/20 08:45:37;;;;;;;13.57;8.40;;;32.80;66.60;;;33.66;38.91;95189.34;5016489;28;20793;-56
2023/06/20 08:48:04;;;;;;;17.08;8.05;;;32.90;65.60;;;33.72;38.55;95188.28;5015502;28;20198;-60
2023/06/20 08:50:32;;;;;;;11.18;6.75;;;33.00;64.70;;;33.78;38.38;95200.00;5021628;28;20288;-61
2023/06/20 08:53:01;;;;;;;15.70;7.93;;;33.00;64.10;;;33.74;37.60;95192.38;5017778;28;20210;-57
2023/06/20 08:55:29;;;;;;;10.80;6.60;;;33.00;63.00;;;33.74;38.30;95194.25;5014709;28;20233;-61
2023/06/20 08:57:57;;;;;;;11.65;7.60;;;33.00;63.40;;;33.74;38.14;95191.53;5012494;28;20324;-55
2023/06/20 09:00:24;;;;;;;29.20;8.23;;;33.00;62.70;;;33.79;38.05;95190.69;5014172;28;20227;-61
2023/06/20 09:02:55;;;;;;;8.77;6.70;;;33.00;62.30;;;33.90;37.80;95187.66;5014753;28;20206;-57
2023/06/20 09:05:22;;;;;;;10.07;6.50;;;33.10;62.10;;;34.03;36.68;95185.41;5014115;28;20218;-61
2023/06/20 09:07:50;;;;;;;10.10;6.88;;;33.20;60.50;;;34.12;36.86;95186.44;5012617;28;20265;-61
2023/06/20 09:10:21;;;;;;;10.95;6.55;;;33.30;59.80;;;34.23;36.28;95179.00;5017385;28;20221;-55
2023/06/20 09:12:49;;;;;;;6.68;5.97;;;33.50;60.00;;;34.36;36.20;95180.31;5015728;28;20201;-61
2023/06/20 09:15:17;;;;;;;9.45;6.40;;;33.60;59.80;;;34.49;35.92;95179.69;5013367;28;20744;-57
2023/06/20 09:17:45;;;;;;;7.05;6.10;;;33.70;59.40;;;34.60;36.29;95177.72;5013608;28;20292;-56
2023/06/20 09:20:14;;;;;;;7.55;6.80;;;33.80;58.70;;;34.62;35.18;95178.22;5014335;28;20303;-54
2023/06/20 09:22:42;;;;;;;9.70;6.30;;;33.90;57.30;;;34.61;36.01;95187.50;5014344;28;20298;-61
2023/06/20 09:25:10;;;;;;;6.00;5.55;;;33.90;57.50;;;34.61;35.85;95177.41;5017277;28;20232;-56
2023/06/20 09:27:38;;;;;;;12.15;5.75;;;33.90;57.30;;;34.59;35.70;95178.78;5017056;28;20261;-61
2023/06/20 09:30:07;;;;;;;6.95;6.25;;;33.90;57.20;;;34.66;35.85;95171.91;5013887;28;20226;-56
2023/06/20 09:32:36;;;;;;;6.53;5.88;;;33.90;57.10;;;34.76;35.66;95173.75;5011395;28;20301;-56
2023/06/20 09:35:04;;;;;;;6.93;5.88;;;34.00;57.00;;;34.84;36.26;95172.34;5017763;28;20615;-60
2023/06/20 09:37:40;;;;;;;12.25;6.38;;;34.00;57.60;;;34.86;35.16;95170.16;5016218;28;20197;-60
2023/06/20 09:40:10;;;;;;;7.43;6.72;;;34.10;56.10;;;34.80;34.00;95168.56;5013531;28;20217;-56
2023/06/20 09:42:38;;;;;;;8.77;6.45;;;34.10;54.50;;;34.54;34.70;95163.25;5016449;28;20198;-60
2023/06/20 09:45:07;;;;;;;8.25;7.07;;;33.90;55.70;;;34.29;35.35;95170.53;5012096;28;20222;-62
2023/06/20 09:47:35;;;;;;;8.70;6.80;;;33.70;55.60;;;34.23;35.65;95155.25;5013406;28;20208;-61
2023/06/20 09:50:05;;;;;;;6.38;5.88;;;33.60;55.90;;;34.27;35.53;95160.97;5017233;28;20221;-62
2023/06/20 09:52:38;;;;;;;12.07;6.18;;;33.50;56.00;;;34.24;35.66;95162.38;5017602;28;20206;-57
2023/06/20 09:55:10;;;;;;;7.35;6.60;;;33.50;56.00;;;34.25;36.07;95163.19;5015734;28;20276;-56
2023/06/20 09:57:41;;;;;;;8.52;6.57;;;33.50;56.30;;;34.30;35.33;95160.41;5014241;28;20301;-55
2023/06/20 10:01:20;;;;;;;7.82;6.35;;;33.60;55.80;;;34.33;35.76;95164.50;5096983;27;20556;-60
2023/06/20 10:03:48;;;;;;;6.78;6.18;;;33.60;56.10;;;34.15;35.69;95169.50;5073676;28;20214;-61
2023/06/20 10:06:16;;;;;;;7.78;6.95;;;33.50;55.70;;;33.88;35.30;95157.09;5062514;28;20208;-54
2023/06/20 10:08:43;;;;;;;8.60;6.75;;;33.30;54.70;;;33.63;35.68;95160.72;5062708;28;20204;-60
2023/06/20 10:11:10;;;;;;;6.93;6.35;;;33.10;55.50;;;33.49;35.75;95148.78;5061924;28;20208;-61
2023/06/20 10:13:39;;;;;;;15.20;7.25;;;32.90;55.20;;;33.42;36.24;95154.53;5059513;28;20246;-57
2023/06/20 10:16:06;;;;;;;6.70;6.10;;;32.80;55.90;;;33.47;35.71;95151.78;5062754;28;20204;-56
2023/06/20 10:18:38;;;;;;;8.38;5.68;;;32.80;55.90;;;33.56;34.61;95152.84;5063266;28;20291;-57
2023/06/20 10:21:07;;;;;;;10.43;5.80;;;32.80;55.20;;;33.59;35.40;95159.66;5062867;28;20314;-57